LNE35 SEGU-SECU
Flight info
| Callsign | LNE35 |
|---|---|
| Flight time | 0h 29m |
| Altitude | 19000 |
| Route | EVRED2A EVRED A566 SIMEB DCT |
| Aircraft | A20N/M-SDE2E3FGHIRWXY/LB1 |
Departure
| Time | 2026-05-07 02:43 |
|---|---|
| Airport | José Joaquín de Olmedo International Airport (SEGU) |
Arrival
| Time | 2026-05-07 03:12 |
|---|---|
| Airport | Mariscal Lamar Airport (SECU) |
| Time | Latitude | Longitude | Altitude | Speed | Heading |
|---|---|---|---|---|---|
| 2026-05-07 02:25 | -2.14830 | -79.88303 | 27 ft | 0 kts | 300° |
| 2026-05-07 02:35 | -2.14834 | -79.88296 | 28 ft | 3 kts | 300° |
| 2026-05-07 02:35 | -2.14843 | -79.88280 | 27 ft | 3 kts | 300° |
| 2026-05-07 02:36 | -2.14852 | -79.88264 | 27 ft | 3 kts | 316° |
| 2026-05-07 02:36 | -2.14867 | -79.88255 | 27 ft | 3 kts | 343° |
| 2026-05-07 02:36 | -2.14880 | -79.88254 | 28 ft | 0 kts | 26° |
| 2026-05-07 02:40 | -2.14873 | -79.88250 | 28 ft | 6 kts | 26° |
| 2026-05-07 02:40 | -2.14798 | -79.88204 | 27 ft | 17 kts | 39° |
| 2026-05-07 02:40 | -2.14831 | -79.88078 | 27 ft | 22 kts | 112° |
| 2026-05-07 02:40 | -2.14755 | -79.87989 | 27 ft | 19 kts | 29° |
| 2026-05-07 02:41 | -2.14654 | -79.87902 | 27 ft | 17 kts | 68° |
| 2026-05-07 02:41 | -2.14647 | -79.87879 | 25 ft | 0 kts | 73° |
| 2026-05-07 02:41 | -2.14646 | -79.87877 | 25 ft | 4 kts | 73° |
| 2026-05-07 02:42 | -2.14634 | -79.87793 | 24 ft | 20 kts | 99° |
| 2026-05-07 02:42 | -2.14771 | -79.87806 | 26 ft | 41 kts | 213° |
| 2026-05-07 02:42 | -2.15216 | -79.88064 | 25 ft | 104 kts | 211° |
| 2026-05-07 02:42 | -2.15994 | -79.88513 | 27 ft | 154 kts | 210° |
| 2026-05-07 02:43 | -2.16911 | -79.89058 | 509 ft | 150 kts | 211° |
| 2026-05-07 02:43 | -2.17808 | -79.89589 | 955 ft | 150 kts | 211° |
| 2026-05-07 02:43 | -2.18739 | -79.90139 | 1349 ft | 160 kts | 211° |
| 2026-05-07 02:43 | -2.19723 | -79.90719 | 1812 ft | 173 kts | 211° |
| 2026-05-07 02:44 | -2.20827 | -79.91367 | 2142 ft | 194 kts | 208° |
| 2026-05-07 02:44 | -2.22148 | -79.91644 | 2789 ft | 203 kts | 171° |
| 2026-05-07 02:44 | -2.23528 | -79.91301 | 3660 ft | 204 kts | 163° |
| 2026-05-07 02:44 | -2.24903 | -79.90883 | 4488 ft | 208 kts | 163° |
| 2026-05-07 02:45 | -2.26239 | -79.90501 | 5216 ft | 212 kts | 165° |
| 2026-05-07 02:45 | -2.26867 | -79.90332 | 5488 ft | 213 kts | 165° |
| 2026-05-07 02:45 | -2.28316 | -79.89961 | 5883 ft | 216 kts | 166° |
| 2026-05-07 02:46 | -2.29770 | -79.89606 | 5988 ft | 218 kts | 167° |
| 2026-05-07 02:46 | -2.31256 | -79.89255 | 6009 ft | 219 kts | 167° |
| 2026-05-07 02:46 | -2.32760 | -79.88905 | 6440 ft | 224 kts | 167° |
| 2026-05-07 02:46 | -2.34262 | -79.88558 | 7225 ft | 223 kts | 167° |
| 2026-05-07 02:47 | -2.35777 | -79.88209 | 8051 ft | 222 kts | 166° |
| 2026-05-07 02:47 | -2.36781 | -79.87978 | 8581 ft | 223 kts | 166° |
| 2026-05-07 02:47 | -2.38809 | -79.87512 | 9591 ft | 226 kts | 165° |
| 2026-05-07 02:47 | -2.40355 | -79.87157 | 10305 ft | 228 kts | 165° |
| 2026-05-07 02:48 | -2.41905 | -79.86801 | 11026 ft | 231 kts | 165° |
| 2026-05-07 02:48 | -2.42952 | -79.86561 | 11482 ft | 233 kts | 165° |
| 2026-05-07 02:48 | -2.44546 | -79.86195 | 12201 ft | 234 kts | 165° |
| 2026-05-07 02:48 | -2.46137 | -79.85830 | 12920 ft | 236 kts | 165° |
| 2026-05-07 02:49 | -2.47751 | -79.85460 | 13606 ft | 238 kts | 165° |
| 2026-05-07 02:49 | -2.49354 | -79.85092 | 14218 ft | 240 kts | 165° |
| 2026-05-07 02:49 | -2.51003 | -79.84714 | 14809 ft | 243 kts | 165° |
| 2026-05-07 02:49 | -2.52644 | -79.84337 | 15391 ft | 245 kts | 165° |
| 2026-05-07 02:50 | -2.54319 | -79.83953 | 15982 ft | 247 kts | 165° |
| 2026-05-07 02:50 | -2.56016 | -79.83564 | 16603 ft | 250 kts | 165° |
| 2026-05-07 02:50 | -2.57701 | -79.83177 | 17178 ft | 252 kts | 165° |
| 2026-05-07 02:50 | -2.59433 | -79.82780 | 17765 ft | 255 kts | 165° |
| 2026-05-07 02:51 | -2.61165 | -79.82382 | 18336 ft | 258 kts | 165° |
| 2026-05-07 02:51 | -2.62932 | -79.81977 | 18795 ft | 261 kts | 165° |
| 2026-05-07 02:51 | -2.64698 | -79.81572 | 19021 ft | 264 kts | 164° |
| 2026-05-07 02:51 | -2.66509 | -79.81193 | 19067 ft | 265 kts | 166° |
| 2026-05-07 02:52 | -2.68309 | -79.80828 | 19064 ft | 266 kts | 165° |
| 2026-05-07 02:52 | -2.70132 | -79.80431 | 19067 ft | 266 kts | 164° |
| 2026-05-07 02:52 | -2.71924 | -79.80019 | 19099 ft | 266 kts | 164° |
| 2026-05-07 02:52 | -2.73733 | -79.79589 | 19098 ft | 266 kts | 163° |
| 2026-05-07 02:53 | -2.75539 | -79.79152 | 19099 ft | 266 kts | 163° |
| 2026-05-07 02:53 | -2.77307 | -79.78666 | 19096 ft | 264 kts | 155° |
| 2026-05-07 02:53 | -2.78835 | -79.77705 | 19096 ft | 257 kts | 130° |
| 2026-05-07 02:53 | -2.79733 | -79.76198 | 19102 ft | 252 kts | 105° |
| 2026-05-07 02:54 | -2.80107 | -79.74470 | 19099 ft | 254 kts | 97° |
| 2026-05-07 02:54 | -2.80259 | -79.72693 | 19103 ft | 256 kts | 92° |
| 2026-05-07 02:54 | -2.80298 | -79.70933 | 19168 ft | 256 kts | 91° |
| 2026-05-07 02:54 | -2.80303 | -79.69145 | 19162 ft | 257 kts | 90° |
| 2026-05-07 02:55 | -2.80311 | -79.67352 | 19171 ft | 259 kts | 91° |
| 2026-05-07 02:55 | -2.80340 | -79.65506 | 19173 ft | 273 kts | 91° |
| 2026-05-07 02:55 | -2.80392 | -79.63582 | 19160 ft | 284 kts | 92° |
| 2026-05-07 02:55 | -2.80463 | -79.61584 | 19160 ft | 287 kts | 93° |
| 2026-05-07 02:56 | -2.80544 | -79.59574 | 19165 ft | 288 kts | 92° |
| 2026-05-07 02:56 | -2.80631 | -79.57567 | 19163 ft | 288 kts | 92° |
| 2026-05-07 02:56 | -2.80717 | -79.55576 | 19246 ft | 288 kts | 92° |
| 2026-05-07 02:56 | -2.80804 | -79.53571 | 19250 ft | 288 kts | 92° |
| 2026-05-07 02:57 | -2.80889 | -79.51588 | 19248 ft | 288 kts | 93° |
| 2026-05-07 02:57 | -2.80974 | -79.49582 | 19254 ft | 288 kts | 92° |
| 2026-05-07 02:57 | -2.81058 | -79.47600 | 19242 ft | 288 kts | 92° |
| 2026-05-07 02:57 | -2.81139 | -79.45593 | 19252 ft | 288 kts | 92° |
| 2026-05-07 02:58 | -2.81183 | -79.43589 | 19245 ft | 287 kts | 91° |
| 2026-05-07 02:58 | -2.81194 | -79.41589 | 19327 ft | 287 kts | 90° |
| 2026-05-07 02:58 | -2.81188 | -79.39609 | 19333 ft | 286 kts | 90° |
| 2026-05-07 02:58 | -2.81175 | -79.37611 | 19336 ft | 285 kts | 90° |
| 2026-05-07 02:59 | -2.81163 | -79.35620 | 19319 ft | 285 kts | 90° |
| 2026-05-07 02:59 | -2.81153 | -79.33631 | 19334 ft | 285 kts | 90° |
| 2026-05-07 02:59 | -2.81145 | -79.31664 | 19326 ft | 286 kts | 90° |
| 2026-05-07 02:59 | -2.81140 | -79.29668 | 19328 ft | 286 kts | 90° |
| 2026-05-07 03:00 | -2.81135 | -79.27667 | 19404 ft | 286 kts | 90° |
| 2026-05-07 03:00 | -2.81132 | -79.25694 | 19387 ft | 286 kts | 90° |
| 2026-05-07 03:00 | -2.81129 | -79.23689 | 19184 ft | 286 kts | 90° |
| 2026-05-07 03:00 | -2.81126 | -79.21724 | 18983 ft | 284 kts | 90° |
| 2026-05-07 03:01 | -2.81122 | -79.19766 | 18927 ft | 283 kts | 90° |
| 2026-05-07 03:01 | -2.81118 | -79.17786 | 18914 ft | 283 kts | 90° |
| 2026-05-07 03:01 | -2.81114 | -79.15804 | 18918 ft | 283 kts | 90° |
| 2026-05-07 03:01 | -2.81111 | -79.13852 | 18894 ft | 284 kts | 90° |
| 2026-05-07 03:02 | -2.81107 | -79.11875 | 18748 ft | 284 kts | 90° |
| 2026-05-07 03:02 | -2.81103 | -79.09911 | 18511 ft | 282 kts | 90° |
| 2026-05-07 03:02 | -2.81099 | -79.07944 | 18247 ft | 281 kts | 90° |
| 2026-05-07 03:02 | -2.81094 | -79.05989 | 17996 ft | 280 kts | 90° |
| 2026-05-07 03:03 | -2.81090 | -79.04073 | 17756 ft | 277 kts | 90° |
| 2026-05-07 03:03 | -2.81086 | -79.02163 | 17558 ft | 271 kts | 90° |
| 2026-05-07 03:03 | -2.81082 | -79.00269 | 17313 ft | 272 kts | 90° |
| 2026-05-07 03:03 | -2.81079 | -78.98373 | 17083 ft | 273 kts | 90° |
| 2026-05-07 03:04 | -2.81075 | -78.96472 | 16838 ft | 272 kts | 90° |
| 2026-05-07 03:04 | -2.81071 | -78.94592 | 16355 ft | 273 kts | 90° |
| 2026-05-07 03:04 | -2.81094 | -78.92699 | 15911 ft | 270 kts | 92° |
| 2026-05-07 03:04 | -2.81176 | -78.90854 | 15621 ft | 258 kts | 93° |
| 2026-05-07 03:05 | -2.81263 | -78.89132 | 15469 ft | 243 kts | 93° |
| 2026-05-07 03:05 | -2.81348 | -78.87485 | 15319 ft | 229 kts | 93° |
| 2026-05-07 03:05 | -2.81428 | -78.85938 | 15162 ft | 216 kts | 93° |
| 2026-05-07 03:05 | -2.81497 | -78.84491 | 14974 ft | 205 kts | 92° |
| 2026-05-07 03:06 | -2.81527 | -78.83077 | 14668 ft | 201 kts | 91° |
| 2026-05-07 03:06 | -2.81504 | -78.81675 | 14293 ft | 201 kts | 82° |
| 2026-05-07 03:06 | -2.81073 | -78.80364 | 13907 ft | 202 kts | 58° |
| 2026-05-07 03:06 | -2.79932 | -78.79546 | 13456 ft | 210 kts | 17° |
| 2026-05-07 03:07 | -2.78479 | -78.79455 | 13084 ft | 213 kts | 358° |
| 2026-05-07 03:07 | -2.77001 | -78.79545 | 12866 ft | 210 kts | 1° |
| 2026-05-07 03:07 | -2.75560 | -78.79740 | 12924 ft | 215 kts | 340° |
| 2026-05-07 03:07 | -2.74400 | -78.80667 | 12950 ft | 218 kts | 304° |
| 2026-05-07 03:08 | -2.73942 | -78.82104 | 12965 ft | 220 kts | 269° |
| 2026-05-07 03:08 | -2.74313 | -78.83551 | 12677 ft | 220 kts | 235° |
| 2026-05-07 03:08 | -2.75419 | -78.84557 | 12266 ft | 213 kts | 199° |
| 2026-05-07 03:08 | -2.76821 | -78.84892 | 12079 ft | 202 kts | 184° |
| 2026-05-07 03:09 | -2.78204 | -78.85067 | 11796 ft | 200 kts | 192° |
| 2026-05-07 03:09 | -2.79389 | -78.85765 | 11455 ft | 202 kts | 223° |
| 2026-05-07 03:09 | -2.80244 | -78.86893 | 11127 ft | 203 kts | 238° |
| 2026-05-07 03:09 | -2.80978 | -78.88087 | 11002 ft | 200 kts | 232° |
| 2026-05-07 03:10 | -2.81790 | -78.89210 | 11020 ft | 200 kts | 232° |
| 2026-05-07 03:10 | -2.82605 | -78.90338 | 11006 ft | 200 kts | 233° |
| 2026-05-07 03:10 | -2.83406 | -78.91447 | 10879 ft | 198 kts | 233° |
| 2026-05-07 03:10 | -2.84220 | -78.92574 | 10376 ft | 199 kts | 233° |
| 2026-05-07 03:11 | -2.85102 | -78.93625 | 9987 ft | 197 kts | 223° |
| 2026-05-07 03:11 | -2.85982 | -78.94650 | 9477 ft | 196 kts | 234° |
| 2026-05-07 03:11 | -2.86767 | -78.95745 | 9092 ft | 191 kts | 229° |
| 2026-05-07 03:11 | -2.87620 | -78.96764 | 8719 ft | 190 kts | 230° |
| 2026-05-07 03:12 | -2.88432 | -78.97792 | 8292 ft | 185 kts | 231° |
| 2026-05-07 03:12 | -2.89113 | -78.98650 | 8306 ft | 110 kts | 231° |
| 2026-05-07 03:12 | -2.89392 | -78.99006 | 8331 ft | 28 kts | 232° |
| 2026-05-07 03:12 | -2.89443 | -78.99106 | 8332 ft | 5 kts | 288° |
| 2026-05-07 03:13 | -2.89437 | -78.99113 | 8337 ft | 2 kts | 312° |
| 2026-05-07 03:13 | -2.89398 | -78.99114 | 8334 ft | 9 kts | 27° |
| 2026-05-07 03:13 | -2.89335 | -78.99053 | 8330 ft | 15 kts | 58° |
| 2026-05-07 03:13 | -2.89259 | -78.98954 | 8325 ft | 23 kts | 52° |
| 2026-05-07 03:14 | -2.89145 | -78.98806 | 8313 ft | 31 kts | 52° |
| 2026-05-07 03:14 | -2.89084 | -78.98731 | 8308 ft | 0 kts | 51° |
| 2026-05-07 03:14 | -2.89081 | -78.98726 | 8308 ft | 3 kts | 51° |
| 2026-05-07 03:15 | -2.89031 | -78.98665 | 8306 ft | 13 kts | 36° |
| 2026-05-07 03:15 | -2.88996 | -78.98666 | 8305 ft | 0 kts | 326° |